createdAt,value
2022-12-18T00:01:21.593Z,26.50
2022-12-18T00:03:49.707Z,31.27
2022-12-18T00:06:17.610Z,32.22
2022-12-18T00:08:45.679Z,35.53
2022-12-18T00:11:14.621Z,31.83
2022-12-18T00:13:43.957Z,31.30
2022-12-18T00:16:12.370Z,37.53
2022-12-18T00:18:40.453Z,30.98
2022-12-18T00:21:10.028Z,32.13
2022-12-18T00:23:38.816Z,29.95
2022-12-18T00:26:07.686Z,36.30
2022-12-18T00:28:35.451Z,33.80
2022-12-18T00:31:04.674Z,35.13
2022-12-18T00:33:32.266Z,27.92
2022-12-18T00:36:02.285Z,33.47
2022-12-18T00:38:29.815Z,39.22
2022-12-18T00:40:57.334Z,37.47
2022-12-18T00:43:24.079Z,35.13
2022-12-18T00:45:51.872Z,32.08
2022-12-18T00:48:20.815Z,32.58
2022-12-18T00:50:49.531Z,32.03
2022-12-18T00:53:17.064Z,34.58
2022-12-18T00:55:45.103Z,36.17
2022-12-18T00:58:16.858Z,29.92
2022-12-18T01:00:44.690Z,34.45
2022-12-18T01:03:14.687Z,31.10
2022-12-18T01:05:43.886Z,30.13
2022-12-18T01:08:11.516Z,33.83
2022-12-18T01:10:42.184Z,34.63
2022-12-18T01:13:10.149Z,31.25
2022-12-18T01:15:37.793Z,37.85
2022-12-18T01:18:05.392Z,37.65
2022-12-18T01:20:32.902Z,31.17
2022-12-18T01:23:02.796Z,35.13
2022-12-18T01:25:30.306Z,31.42
2022-12-18T01:28:00.071Z,44.45
2022-12-18T01:30:27.562Z,31.20
2022-12-18T01:32:55.038Z,31.50
2022-12-18T01:35:22.584Z,33.75
2022-12-18T01:37:50.054Z,34.63
2022-12-18T01:40:22.732Z,42.38
2022-12-18T01:42:51.998Z,36.65
2022-12-18T01:45:27.338Z,42.42
2022-12-18T01:47:57.428Z,41.20
2022-12-18T01:50:29.429Z,30.30
2022-12-18T01:53:00.088Z,36.03
2022-12-18T01:55:31.063Z,36.38
2022-12-18T01:57:59.613Z,39.13
2022-12-18T02:00:27.808Z,33.83
2022-12-18T02:02:57.508Z,35.25
2022-12-18T02:05:46.986Z,32.08
2022-12-18T02:08:27.188Z,40.08
2022-12-18T02:11:04.524Z,34.83
2022-12-18T02:13:37.577Z,33.88
2022-12-18T02:16:08.204Z,31.20
2022-12-18T02:18:37.249Z,33.53
2022-12-18T02:21:13.903Z,35.40
2022-12-18T02:23:53.772Z,27.85
2022-12-18T02:26:28.334Z,35.88
2022-12-18T02:29:01.829Z,39.53
2022-12-18T02:31:30.571Z,32.65
2022-12-18T02:33:59.702Z,40.25
2022-12-18T02:36:28.755Z,35.55
2022-12-18T02:38:57.196Z,32.90
2022-12-18T02:41:30.634Z,35.33
2022-12-18T02:44:02.549Z,34.20
2022-12-18T02:46:32.946Z,33.00
2022-12-18T02:49:05.864Z,29.23
2022-12-18T02:51:37.059Z,23.67
2022-12-18T02:54:07.613Z,28.58
2022-12-18T02:56:39.534Z,30.08
2022-12-18T02:59:13.492Z,31.05
2022-12-18T03:04:11.083Z,25.65
2022-12-18T03:06:41.647Z,25.08
2022-12-18T03:09:11.088Z,37.30
2022-12-18T03:12:08.071Z,33.95
2022-12-18T03:14:41.831Z,27.98
2022-12-18T03:17:14.327Z,25.33
2022-12-18T03:19:42.450Z,27.10
2022-12-18T03:22:09.963Z,30.95
2022-12-18T03:24:40.511Z,24.25
2022-12-18T03:27:10.851Z,27.05
2022-12-18T03:29:41.086Z,34.53
2022-12-18T03:32:17.227Z,27.80
2022-12-18T03:34:53.644Z,26.95
2022-12-18T03:37:23.237Z,25.23
2022-12-18T03:39:52.724Z,27.70
2022-12-18T03:42:26.153Z,28.85
2022-12-18T03:44:56.953Z,29.40
2022-12-18T03:47:30.313Z,20.40
2022-12-18T03:49:59.826Z,17.55
2022-12-18T03:52:28.895Z,20.90
2022-12-18T03:54:57.409Z,24.33
2022-12-18T03:57:28.444Z,22.08
2022-12-18T03:59:57.936Z,28.48
2022-12-18T04:02:26.215Z,23.35
2022-12-18T04:04:54.586Z,26.60
2022-12-18T04:07:23.560Z,29.60
2022-12-18T04:09:53.104Z,22.77
2022-12-18T04:12:20.550Z,18.65
2022-12-18T04:14:49.458Z,27.75
2022-12-18T04:17:17.096Z,23.95
2022-12-18T04:19:44.567Z,26.27
2022-12-18T04:22:12.247Z,20.67
2022-12-18T04:24:39.837Z,23.02
2022-12-18T04:27:07.353Z,19.88
2022-12-18T04:29:34.827Z,24.98
2022-12-18T04:32:03.688Z,26.38
2022-12-18T04:34:31.562Z,27.23
2022-12-18T04:36:59.100Z,29.50
2022-12-18T04:39:26.758Z,30.55
2022-12-18T04:41:54.300Z,25.35
2022-12-18T04:44:21.794Z,18.92
2022-12-18T04:46:49.321Z,26.25
2022-12-18T04:49:18.242Z,23.65
2022-12-18T04:51:45.752Z,24.40
2022-12-18T04:54:13.227Z,26.00
2022-12-18T04:56:40.817Z,28.30
2022-12-18T04:59:08.328Z,22.35
2022-12-18T05:01:35.940Z,23.90
2022-12-18T05:04:03.656Z,23.73
2022-12-18T05:06:32.505Z,22.15
2022-12-18T05:09:00.506Z,20.80
2022-12-18T05:11:28.050Z,26.15
2022-12-18T05:13:58.339Z,24.77
2022-12-18T05:16:26.067Z,21.23
2022-12-18T05:18:53.628Z,20.55
2022-12-18T05:21:21.136Z,25.65
2022-12-18T05:23:50.018Z,17.25
2022-12-18T05:26:19.607Z,23.55
2022-12-18T05:28:47.221Z,22.92
2022-12-18T05:31:14.833Z,23.45
2022-12-18T05:33:42.813Z,22.33
2022-12-18T05:36:12.217Z,23.38
2022-12-18T05:38:40.523Z,29.15
2022-12-18T05:41:09.684Z,18.45
2022-12-18T05:43:38.126Z,20.70
2022-12-18T05:46:06.893Z,23.38
2022-12-18T05:48:34.546Z,24.85
2022-12-18T05:51:05.715Z,27.42
2022-12-18T05:53:36.016Z,22.08
2022-12-18T05:56:03.858Z,28.15
2022-12-18T05:58:34.972Z,24.83
2022-12-18T06:01:08.481Z,19.52
2022-12-18T06:03:38.698Z,23.48
2022-12-18T06:06:10.350Z,19.02
2022-12-18T06:08:46.009Z,20.25
2022-12-18T06:11:16.470Z,18.40
2022-12-18T06:13:53.483Z,21.17
2022-12-18T06:16:23.871Z,21.02
2022-12-18T06:18:53.503Z,19.20
2022-12-18T06:21:20.986Z,22.25
2022-12-18T06:23:50.432Z,19.23
2022-12-18T06:26:20.177Z,16.20
2022-12-18T06:28:52.335Z,21.02
2022-12-18T06:31:22.569Z,14.15
2022-12-18T06:33:50.134Z,16.13
2022-12-18T06:36:18.183Z,22.58
2022-12-18T06:38:48.497Z,18.13
2022-12-18T06:41:19.097Z,19.27
2022-12-18T06:43:55.549Z,19.73
2022-12-18T06:46:32.248Z,19.63
2022-12-18T06:49:05.605Z,17.63
2022-12-18T06:51:33.136Z,23.00
2022-12-18T06:54:00.863Z,23.98
2022-12-18T06:56:29.454Z,16.10
2022-12-18T06:58:57.010Z,21.98
2022-12-18T07:01:25.055Z,16.98
2022-12-18T07:03:59.933Z,23.98
2022-12-18T07:06:29.234Z,22.77
2022-12-18T07:08:57.208Z,22.65
2022-12-18T07:11:26.009Z,20.95
2022-12-18T07:13:56.711Z,23.80
2022-12-18T07:16:25.582Z,24.40
2022-12-18T07:18:53.517Z,21.13
2022-12-18T07:21:22.527Z,18.92
2022-12-18T07:23:52.749Z,20.02
2022-12-18T07:26:45.930Z,27.63
2022-12-18T07:29:20.143Z,21.10
2022-12-18T07:31:47.793Z,23.17
2022-12-18T07:34:16.094Z,19.42
2022-12-18T07:36:47.224Z,23.63
2022-12-18T07:39:15.302Z,21.33
2022-12-18T07:41:47.479Z,19.67
2022-12-18T07:44:15.628Z,27.92
2022-12-18T07:46:45.116Z,14.93
2022-12-18T07:49:15.789Z,19.25
2022-12-18T07:51:43.346Z,27.80
2022-12-18T07:54:12.325Z,17.80
2022-12-18T07:56:39.942Z,18.92
2022-12-18T07:59:07.394Z,19.70
2022-12-18T08:01:35.569Z,16.48
2022-12-18T08:04:03.361Z,16.80
2022-12-18T08:06:30.896Z,24.48
2022-12-18T08:08:59.464Z,18.83
2022-12-18T08:11:28.893Z,19.25
2022-12-18T08:13:56.732Z,24.63
2022-12-18T08:16:24.619Z,22.58
2022-12-18T08:18:53.402Z,20.48
2022-12-18T08:21:24.062Z,22.48
2022-12-18T08:23:52.343Z,26.40
2022-12-18T08:26:20.892Z,18.55
2022-12-18T08:28:51.253Z,17.33
2022-12-18T08:31:19.375Z,19.17
2022-12-18T08:33:47.161Z,21.25
2022-12-18T08:36:14.684Z,19.10
2022-12-18T08:38:42.266Z,18.45
2022-12-18T08:41:10.963Z,18.65
2022-12-18T08:43:55.973Z,18.58
2022-12-18T08:46:29.037Z,23.98
2022-12-18T08:48:57.479Z,23.75
2022-12-18T08:51:25.207Z,24.67
2022-12-18T08:53:53.496Z,18.88
2022-12-18T08:56:21.247Z,16.50
2022-12-18T08:58:48.876Z,22.17
2022-12-18T09:01:19.711Z,28.17
2022-12-18T09:03:52.162Z,18.98
2022-12-18T09:06:20.776Z,16.08
2022-12-18T09:08:48.371Z,18.15
2022-12-18T09:11:17.112Z,13.93
2022-12-18T09:13:44.881Z,16.83
2022-12-18T09:16:12.469Z,19.67
2022-12-18T09:18:44.313Z,17.00
2022-12-18T09:21:17.414Z,20.70
2022-12-18T09:23:46.677Z,14.48
2022-12-18T09:26:14.218Z,21.33
2022-12-18T09:28:45.824Z,18.67
2022-12-18T09:31:14.403Z,17.85
2022-12-18T09:33:42.453Z,14.57
2022-12-18T09:36:11.604Z,19.00
2022-12-18T09:38:41.236Z,11.88
2022-12-18T09:41:19.547Z,16.63
2022-12-18T09:43:48.277Z,11.95
2022-12-18T09:46:19.878Z,18.05
2022-12-18T09:48:49.257Z,16.17
2022-12-18T09:51:17.671Z,16.42
2022-12-18T09:53:49.356Z,18.90
2022-12-18T09:56:19.653Z,13.38
2022-12-18T09:58:49.792Z,17.05
2022-12-18T10:01:20.557Z,8.23
2022-12-18T10:03:48.211Z,15.18
2022-12-18T10:06:17.217Z,9.75
2022-12-18T10:08:47.911Z,12.93
2022-12-18T10:11:26.194Z,16.17
2022-12-18T10:13:55.515Z,12.38
2022-12-18T10:16:30.098Z,12.27
2022-12-18T10:19:04.327Z,15.40
2022-12-18T10:21:34.119Z,17.42
2022-12-18T10:24:05.469Z,17.83
2022-12-18T10:26:38.063Z,13.43
2022-12-18T10:29:06.633Z,12.27
2022-12-18T10:31:34.245Z,13.05
2022-12-18T10:34:01.921Z,17.15
2022-12-18T10:36:29.558Z,13.77
2022-12-18T10:39:15.754Z,14.68
2022-12-18T10:41:44.705Z,14.25
2022-12-18T10:44:13.708Z,12.30
2022-12-18T10:46:41.366Z,14.20
2022-12-18T10:49:20.371Z,14.38
2022-12-18T10:51:47.822Z,14.20
2022-12-18T10:54:19.162Z,17.15
2022-12-18T10:56:53.198Z,17.13
2022-12-18T10:59:22.140Z,14.73
2022-12-18T11:02:03.257Z,17.25
2022-12-18T11:04:31.591Z,11.38
2022-12-18T11:07:00.673Z,14.75
2022-12-18T11:09:28.992Z,19.30
2022-12-18T11:12:00.147Z,15.23
2022-12-18T11:14:33.221Z,18.10
2022-12-18T11:19:55.602Z,16.27
2022-12-18T11:25:30.341Z,19.85
2022-12-18T11:27:53.440Z,15.38
2022-12-18T11:30:25.176Z,14.80
2022-12-18T11:32:54.338Z,19.55
2022-12-18T11:35:23.958Z,18.70
2022-12-18T11:37:55.391Z,16.38
2022-12-18T11:40:28.629Z,20.65
2022-12-18T11:43:00.469Z,14.02
2022-12-18T11:45:32.602Z,19.00
2022-12-18T11:48:02.919Z,13.40
2022-12-18T11:50:33.586Z,15.38
2022-12-18T11:53:05.628Z,13.95
2022-12-18T11:55:37.884Z,16.02
2022-12-18T11:58:09.813Z,14.07
2022-12-18T12:00:40.053Z,11.38
2022-12-18T12:03:18.233Z,12.75
2022-12-18T12:05:52.155Z,15.70
2022-12-18T12:08:30.429Z,21.75
2022-12-18T12:11:01.888Z,13.55
2022-12-18T12:13:40.804Z,26.48
2022-12-18T12:16:16.958Z,10.85
2022-12-18T12:19:01.965Z,17.88
2022-12-18T12:21:30.911Z,10.57
2022-12-18T12:24:02.525Z,13.65
2022-12-18T12:26:35.619Z,11.15
2022-12-18T12:29:10.757Z,10.93
2022-12-18T12:31:47.322Z,14.77
2022-12-18T12:34:22.013Z,11.65
2022-12-18T12:37:00.971Z,11.70
2022-12-18T12:39:31.329Z,14.63
2022-12-18T12:42:22.524Z,15.85
2022-12-18T12:44:56.332Z,13.70
2022-12-18T12:47:42.612Z,14.98
2022-12-18T12:50:15.103Z,12.25
2022-12-18T12:52:44.918Z,11.93
2022-12-18T12:55:16.314Z,13.98
2022-12-18T12:57:45.637Z,11.68
2022-12-18T13:00:17.509Z,14.90
2022-12-18T13:02:57.658Z,11.30
2022-12-18T13:05:34.424Z,9.68
2022-12-18T13:08:07.676Z,13.68
2022-12-18T13:10:36.100Z,15.30
2022-12-18T13:13:04.003Z,11.25
2022-12-18T13:15:36.819Z,11.27
2022-12-18T13:18:22.880Z,12.70
2022-12-18T13:21:03.945Z,10.77
2022-12-18T13:23:38.097Z,10.93
2022-12-18T13:26:28.772Z,10.90
2022-12-18T13:29:02.878Z,16.48
2022-12-18T13:34:25.641Z,12.63
2022-12-18T13:36:55.041Z,12.70
2022-12-18T13:39:35.226Z,12.50
2022-12-18T13:42:36.118Z,9.48
2022-12-18T13:45:21.358Z,13.60
2022-12-18T13:47:51.049Z,13.45
2022-12-18T13:50:25.056Z,11.85
2022-12-18T13:52:53.227Z,12.82
2022-12-18T13:55:21.663Z,16.35
2022-12-18T13:57:49.142Z,17.10
2022-12-18T14:00:32.008Z,19.77
2022-12-18T14:03:04.167Z,16.10
2022-12-18T14:05:40.267Z,21.02
2022-12-18T14:08:24.017Z,13.73
2022-12-18T14:10:54.090Z,15.38
2022-12-18T14:13:29.070Z,12.95
2022-12-18T14:16:15.795Z,15.80
2022-12-18T14:18:53.802Z,11.90
2022-12-18T14:21:36.639Z,17.20
2022-12-18T14:24:08.428Z,13.43
2022-12-18T14:26:38.174Z,17.58
2022-12-18T14:29:25.724Z,15.00
2022-12-18T14:32:13.351Z,8.07
2022-12-18T14:34:49.660Z,13.13
2022-12-18T14:37:21.984Z,12.45
2022-12-18T14:39:57.657Z,9.80
2022-12-18T14:42:28.881Z,8.70
2022-12-18T14:45:14.944Z,13.15
2022-12-18T14:47:49.497Z,10.63
2022-12-18T14:50:17.223Z,9.05
2022-12-18T14:52:55.628Z,13.93
2022-12-18T14:55:23.629Z,8.57
2022-12-18T14:57:52.895Z,12.88
2022-12-18T15:00:25.025Z,10.00
2022-12-18T15:03:19.452Z,11.32
2022-12-18T15:05:45.361Z,13.00
2022-12-18T15:08:29.753Z,9.90
2022-12-18T15:11:01.798Z,10.55
2022-12-18T15:13:29.850Z,13.82
2022-12-18T15:16:23.974Z,14.32
2022-12-18T15:19:10.181Z,11.43
2022-12-18T15:21:45.096Z,19.23
2022-12-18T15:24:18.900Z,14.30
2022-12-18T15:26:50.902Z,11.88
2022-12-18T15:29:21.025Z,13.02
2022-12-18T15:32:02.475Z,11.40
2022-12-18T15:34:30.284Z,13.27
2022-12-18T15:36:58.241Z,14.85
2022-12-18T15:39:30.249Z,15.43
2022-12-18T15:42:20.304Z,11.70
2022-12-18T15:44:48.293Z,13.50
2022-12-18T15:47:15.938Z,13.80
2022-12-18T15:49:43.496Z,11.82
2022-12-18T15:52:15.599Z,10.43
2022-12-18T15:55:04.400Z,12.48
2022-12-18T16:00:35.165Z,10.43
2022-12-18T16:03:06.737Z,7.05
2022-12-18T16:05:34.873Z,10.85
2022-12-18T16:08:04.965Z,5.90
2022-12-18T16:10:54.781Z,9.20
2022-12-18T16:17:17.080Z,7.50
2022-12-18T16:19:51.289Z,7.20
2022-12-18T16:25:42.574Z,5.72
2022-12-18T16:28:23.400Z,7.97
2022-12-18T16:30:54.328Z,8.50
2022-12-18T16:31:32.808Z,11.90
2022-12-18T16:33:23.275Z,13.93
2022-12-18T16:36:00.252Z,6.03
2022-12-18T16:38:42.762Z,10.25
2022-12-18T16:41:34.351Z,9.45
2022-12-18T16:44:02.755Z,10.32
2022-12-18T16:46:30.502Z,10.18
2022-12-18T16:49:09.323Z,10.80
2022-12-18T16:51:52.546Z,15.25
2022-12-18T16:54:25.282Z,15.07
2022-12-18T16:56:53.502Z,16.67
2022-12-18T16:59:21.091Z,11.65
2022-12-18T17:08:16.763Z,8.55
2022-12-18T17:16:32.109Z,11.20
2022-12-18T17:19:00.527Z,12.85
2022-12-18T17:21:30.070Z,10.32
2022-12-18T17:24:00.514Z,11.77
2022-12-18T17:26:28.004Z,9.13
2022-12-18T17:29:01.342Z,9.20
2022-12-18T17:31:30.235Z,10.77
2022-12-18T17:33:58.308Z,13.05
2022-12-18T17:36:28.600Z,9.20
2022-12-18T17:38:56.866Z,15.82
2022-12-18T17:41:26.069Z,10.68
2022-12-18T17:43:53.773Z,11.70
2022-12-18T17:46:21.567Z,14.93
2022-12-18T17:48:49.461Z,13.23
2022-12-18T17:51:19.101Z,10.75
2022-12-18T17:53:48.007Z,13.50
2022-12-18T17:56:16.661Z,12.52
2022-12-18T17:58:48.041Z,14.32
2022-12-18T18:01:20.187Z,9.32
2022-12-18T18:03:50.760Z,11.40
2022-12-18T18:06:26.823Z,18.20
2022-12-18T18:08:56.407Z,12.07
2022-12-18T18:11:42.339Z,10.38
2022-12-18T18:14:14.895Z,15.23
2022-12-18T18:16:43.997Z,13.93
2022-12-18T18:19:24.488Z,14.80
2022-12-18T18:21:52.755Z,11.57
2022-12-18T18:24:23.351Z,12.48
2022-12-18T18:26:51.131Z,8.95
2022-12-18T18:29:22.380Z,13.10
2022-12-18T18:31:50.684Z,11.63
2022-12-18T18:34:19.619Z,10.90
2022-12-18T18:36:47.267Z,14.68
2022-12-18T18:39:15.044Z,16.25
2022-12-18T18:41:46.856Z,12.77
2022-12-18T18:44:19.459Z,13.80
2022-12-18T18:46:59.310Z,14.50
2022-12-18T18:49:37.218Z,15.82
2022-12-18T18:52:07.144Z,12.77
2022-12-18T18:54:34.780Z,11.93
2022-12-18T18:57:23.378Z,12.88
2022-12-18T18:59:55.088Z,9.93
2022-12-18T19:02:27.283Z,13.80
2022-12-18T19:04:55.013Z,12.90
2022-12-18T19:07:30.637Z,17.23
2022-12-18T19:10:04.787Z,13.85
2022-12-18T19:12:50.902Z,14.23
2022-12-18T19:15:18.576Z,12.73
2022-12-18T19:17:50.347Z,13.38
2022-12-18T19:20:18.619Z,13.48
2022-12-18T19:22:48.998Z,11.52
2022-12-18T19:25:26.953Z,21.52
2022-12-18T19:28:10.035Z,13.15
2022-12-18T19:30:58.852Z,16.95
2022-12-18T19:33:43.744Z,11.30
2022-12-18T19:36:13.485Z,15.13
2022-12-18T19:38:52.254Z,14.35
2022-12-18T19:41:23.182Z,16.08
2022-12-18T19:43:51.353Z,12.48
2022-12-18T19:46:20.396Z,14.25
2022-12-18T19:48:49.937Z,17.20
2022-12-18T19:51:18.357Z,11.85
2022-12-18T19:53:46.408Z,13.32
2022-12-18T19:56:17.126Z,14.57
2022-12-18T19:58:48.787Z,11.88
2022-12-18T20:01:17.252Z,11.85
2022-12-18T20:03:52.281Z,19.33
2022-12-18T20:06:25.797Z,12.90
2022-12-18T20:08:56.823Z,19.88
2022-12-18T20:11:33.256Z,11.88
2022-12-18T20:14:06.677Z,21.27
2022-12-18T20:16:34.257Z,17.08
2022-12-18T20:19:06.288Z,12.75
2022-12-18T20:21:36.129Z,14.65
2022-12-18T20:24:07.052Z,13.23
2022-12-18T20:26:35.867Z,12.18
2022-12-18T20:29:03.463Z,10.82
2022-12-18T20:31:36.651Z,12.23
2022-12-18T20:34:11.157Z,13.30
2022-12-18T20:36:41.088Z,14.27
2022-12-18T20:39:13.389Z,21.50
2022-12-18T20:41:41.918Z,11.98
2022-12-18T20:44:21.650Z,14.18
2022-12-18T20:46:54.233Z,15.57
2022-12-18T20:49:24.325Z,13.65
2022-12-18T20:51:56.292Z,15.73
2022-12-18T20:54:25.197Z,13.82
2022-12-18T20:56:52.769Z,15.10
2022-12-18T20:59:27.661Z,21.45
2022-12-18T21:01:58.462Z,14.10
2022-12-18T21:04:31.025Z,15.63
2022-12-18T21:07:02.610Z,16.38
2022-12-18T21:09:37.549Z,10.35
2022-12-18T21:12:24.144Z,15.70
2022-12-18T21:14:53.830Z,14.45
2022-12-18T21:17:21.272Z,9.10
2022-12-18T21:19:50.946Z,14.15
2022-12-18T21:22:20.732Z,12.35
2022-12-18T21:24:49.760Z,13.77
2022-12-18T21:27:19.861Z,12.18
2022-12-18T21:29:52.667Z,13.80
2022-12-18T21:32:33.408Z,14.43
2022-12-18T21:35:22.109Z,13.10
2022-12-18T21:37:55.520Z,14.02
2022-12-18T21:40:23.143Z,10.98
2022-12-18T21:43:08.143Z,11.50
2022-12-18T21:45:35.862Z,15.40
2022-12-18T21:48:03.852Z,15.25
2022-12-18T21:50:31.509Z,17.83
2022-12-18T21:53:03.589Z,11.80
2022-12-18T21:55:33.265Z,13.13
2022-12-18T21:58:03.659Z,13.50
2022-12-18T22:00:31.563Z,19.73
2022-12-18T22:03:18.447Z,15.73
2022-12-18T22:05:47.562Z,12.32
2022-12-18T22:08:20.270Z,11.55
2022-12-18T22:10:48.191Z,11.65
2022-12-18T22:13:16.148Z,9.90
2022-12-18T22:15:45.970Z,13.13
2022-12-18T22:18:13.491Z,14.50
2022-12-18T22:20:41.014Z,10.25
2022-12-18T22:23:09.324Z,11.55
2022-12-18T22:25:39.882Z,12.35
2022-12-18T22:28:25.047Z,15.18
2022-12-18T22:30:53.385Z,11.52
2022-12-18T22:33:27.102Z,13.50
2022-12-18T22:35:54.651Z,12.18
2022-12-18T22:38:28.763Z,13.18
2022-12-18T22:40:59.684Z,13.15
2022-12-18T22:43:28.399Z,7.25
2022-12-18T22:45:56.011Z,10.57
2022-12-18T22:48:23.589Z,17.27
2022-12-18T22:50:55.941Z,18.08
2022-12-18T22:53:28.624Z,8.80
2022-12-18T22:56:04.502Z,11.63
2022-12-18T22:58:32.100Z,19.67
2022-12-18T23:01:01.891Z,14.40
2022-12-18T23:03:31.409Z,14.82
2022-12-18T23:06:04.659Z,15.05
2022-12-18T23:08:32.169Z,9.68
2022-12-18T23:11:01.572Z,13.90
2022-12-18T23:13:30.629Z,22.00
2022-12-18T23:15:58.147Z,18.27
2022-12-18T23:18:25.710Z,17.60
2022-12-18T23:20:53.587Z,18.00
2022-12-18T23:23:24.378Z,15.75
2022-12-18T23:25:51.954Z,12.07
2022-12-18T23:28:19.602Z,10.70
2022-12-18T23:30:48.473Z,14.02
2022-12-18T23:33:16.264Z,11.13
2022-12-18T23:35:43.968Z,9.65
2022-12-18T23:38:11.487Z,9.93
2022-12-18T23:40:38.964Z,11.25
2022-12-18T23:43:06.472Z,16.17
2022-12-18T23:45:37.736Z,16.63
2022-12-18T23:48:07.172Z,14.25
2022-12-18T23:50:35.822Z,12.52
2022-12-18T23:53:05.928Z,13.13
2022-12-18T23:55:34.412Z,16.27
2022-12-18T23:58:02.296Z,11.95
